DLH2PV EDDH-EDDF
Flight info
| Callsign | DLH2PV |
|---|---|
| Flight time | 0h 49m |
| Altitude | 31000 |
| Route | AMLUH2G AMLUH M852 DENIX DCT RIMET/N0451F310 T157 KOKEB/N0409F230 T157 KERAX KERAX5A |
| Aircraft | A320/M-SDE3FGHIRWY/LB1 |
Departure
| Time | 2026-05-06 23:29 |
|---|---|
| Airport | Hamburg Helmut Schmidt Airport (EDDH) |
Arrival
| Time | 2026-05-07 00:18 |
|---|---|
| Airport | Frankfurt Main Airport (EDDF) |
| Time | Latitude | Longitude | Altitude | Speed | Heading |
|---|---|---|---|---|---|
| 2026-05-06 22:49 | 53.63294 | 10.00359 | 51 ft | 0 kts | 86° |
| 2026-05-06 23:21 | 53.63294 | 10.00356 | 51 ft | 2 kts | 86° |
| 2026-05-06 23:21 | 53.63293 | 10.00312 | 51 ft | 4 kts | 94° |
| 2026-05-06 23:21 | 53.63298 | 10.00268 | 47 ft | 4 kts | 113° |
| 2026-05-06 23:22 | 53.63312 | 10.00237 | 47 ft | 4 kts | 168° |
| 2026-05-06 23:22 | 53.63317 | 10.00235 | 47 ft | 0 kts | 176° |
| 2026-05-06 23:25 | 53.63316 | 10.00235 | 51 ft | 1 kts | 176° |
| 2026-05-06 23:25 | 53.63288 | 10.00239 | 51 ft | 8 kts | 176° |
| 2026-05-06 23:25 | 53.63236 | 10.00245 | 51 ft | 7 kts | 176° |
| 2026-05-06 23:26 | 53.63192 | 10.00250 | 51 ft | 6 kts | 176° |
| 2026-05-06 23:26 | 53.63150 | 10.00255 | 48 ft | 8 kts | 176° |
| 2026-05-06 23:26 | 53.63092 | 10.00261 | 51 ft | 8 kts | 176° |
| 2026-05-06 23:26 | 53.63042 | 10.00233 | 50 ft | 8 kts | 213° |
| 2026-05-06 23:27 | 53.62989 | 10.00176 | 49 ft | 10 kts | 213° |
| 2026-05-06 23:27 | 53.62931 | 10.00115 | 51 ft | 9 kts | 212° |
| 2026-05-06 23:27 | 53.62879 | 10.00060 | 47 ft | 8 kts | 214° |
| 2026-05-06 23:27 | 53.62851 | 9.99985 | 50 ft | 7 kts | 243° |
| 2026-05-06 23:28 | 53.62830 | 9.99915 | 49 ft | 7 kts | 244° |
| 2026-05-06 23:28 | 53.62811 | 9.99796 | 48 ft | 12 kts | 285° |
| 2026-05-06 23:28 | 53.62876 | 9.99733 | 48 ft | 12 kts | 336° |
| 2026-05-06 23:28 | 53.63084 | 9.99557 | 50 ft | 68 kts | 333° |
| 2026-05-06 23:29 | 53.63703 | 9.99023 | 49 ft | 129 kts | 333° |
| 2026-05-06 23:29 | 53.64652 | 9.98205 | 69 ft | 174 kts | 333° |
| 2026-05-06 23:29 | 53.65713 | 9.97306 | 740 ft | 168 kts | 337° |
| 2026-05-06 23:29 | 53.66755 | 9.96409 | 1485 ft | 168 kts | 338° |
| 2026-05-06 23:30 | 53.67809 | 9.95483 | 2056 ft | 178 kts | 337° |
| 2026-05-06 23:30 | 53.69012 | 9.94641 | 2325 ft | 197 kts | 355° |
| 2026-05-06 23:30 | 53.70437 | 9.94687 | 2699 ft | 212 kts | 8° |
| 2026-05-06 23:30 | 53.71949 | 9.94900 | 3474 ft | 215 kts | 18° |
| 2026-05-06 23:31 | 53.73145 | 9.96260 | 4276 ft | 211 kts | 57° |
| 2026-05-06 23:31 | 53.73645 | 9.98569 | 5082 ft | 212 kts | 76° |
| 2026-05-06 23:31 | 53.73997 | 10.01027 | 5820 ft | 218 kts | 76° |
| 2026-05-06 23:31 | 53.74016 | 10.03613 | 6563 ft | 224 kts | 101° |
| 2026-05-06 23:32 | 53.73420 | 10.06133 | 7128 ft | 241 kts | 117° |
| 2026-05-06 23:32 | 53.72564 | 10.08742 | 7434 ft | 266 kts | 117° |
| 2026-05-06 23:32 | 53.71629 | 10.11525 | 8084 ft | 277 kts | 118° |
| 2026-05-06 23:32 | 53.70645 | 10.14374 | 8822 ft | 283 kts | 119° |
| 2026-05-06 23:33 | 53.69587 | 10.17207 | 9645 ft | 289 kts | 128° |
| 2026-05-06 23:33 | 53.68164 | 10.19623 | 10400 ft | 294 kts | 141° |
| 2026-05-06 23:33 | 53.66361 | 10.21504 | 10683 ft | 317 kts | 156° |
| 2026-05-06 23:33 | 53.64219 | 10.22678 | 10911 ft | 339 kts | 165° |
| 2026-05-06 23:34 | 53.61807 | 10.23709 | 11268 ft | 355 kts | 166° |
| 2026-05-06 23:34 | 53.59396 | 10.24739 | 11977 ft | 359 kts | 166° |
| 2026-05-06 23:34 | 53.56965 | 10.25809 | 12664 ft | 364 kts | 166° |
| 2026-05-06 23:34 | 53.54508 | 10.26917 | 13388 ft | 367 kts | 166° |
| 2026-05-06 23:35 | 53.52028 | 10.28053 | 14063 ft | 371 kts | 166° |
| 2026-05-06 23:35 | 53.49531 | 10.29202 | 14701 ft | 374 kts | 166° |
| 2026-05-06 23:35 | 53.46982 | 10.30371 | 15364 ft | 376 kts | 166° |
| 2026-05-06 23:35 | 53.44446 | 10.31528 | 15996 ft | 379 kts | 166° |
| 2026-05-06 23:36 | 53.41890 | 10.32693 | 16623 ft | 382 kts | 166° |
| 2026-05-06 23:36 | 53.39282 | 10.33877 | 17247 ft | 384 kts | 166° |
| 2026-05-06 23:36 | 53.36692 | 10.35050 | 17876 ft | 386 kts | 167° |
| 2026-05-06 23:36 | 53.34088 | 10.36225 | 18424 ft | 389 kts | 167° |
| 2026-05-06 23:37 | 53.31463 | 10.37405 | 18932 ft | 392 kts | 167° |
| 2026-05-06 23:37 | 53.28822 | 10.38587 | 19425 ft | 394 kts | 167° |
| 2026-05-06 23:37 | 53.26266 | 10.39729 | 19897 ft | 397 kts | 167° |
| 2026-05-06 23:37 | 53.23407 | 10.41005 | 20419 ft | 400 kts | 167° |
| 2026-05-06 23:38 | 53.20706 | 10.42208 | 20909 ft | 403 kts | 167° |
| 2026-05-06 23:38 | 53.17989 | 10.43419 | 21387 ft | 406 kts | 167° |
| 2026-05-06 23:38 | 53.15253 | 10.44627 | 21857 ft | 408 kts | 169° |
| 2026-05-06 23:38 | 53.13382 | 10.45195 | 22151 ft | 408 kts | 175° |
| 2026-05-06 23:39 | 53.10529 | 10.45373 | 22616 ft | 408 kts | 185° |
| 2026-05-06 23:39 | 53.07692 | 10.44980 | 23066 ft | 410 kts | 187° |
| 2026-05-06 23:39 | 53.04834 | 10.44571 | 23513 ft | 413 kts | 187° |
| 2026-05-06 23:39 | 53.01961 | 10.44175 | 23889 ft | 415 kts | 186° |
| 2026-05-06 23:40 | 52.99031 | 10.43776 | 24262 ft | 418 kts | 186° |
| 2026-05-06 23:40 | 52.96131 | 10.43381 | 24629 ft | 420 kts | 186° |
| 2026-05-06 23:40 | 52.93213 | 10.42985 | 25004 ft | 422 kts | 186° |
| 2026-05-06 23:40 | 52.90280 | 10.42591 | 25359 ft | 424 kts | 186° |
| 2026-05-06 23:41 | 52.87336 | 10.42197 | 25711 ft | 426 kts | 186° |
| 2026-05-06 23:41 | 52.84376 | 10.41798 | 26070 ft | 428 kts | 186° |
| 2026-05-06 23:41 | 52.81405 | 10.41395 | 26423 ft | 430 kts | 186° |
| 2026-05-06 23:41 | 52.78416 | 10.40986 | 26762 ft | 432 kts | 186° |
| 2026-05-06 23:42 | 52.75375 | 10.40571 | 27124 ft | 433 kts | 186° |
| 2026-05-06 23:42 | 52.72364 | 10.40163 | 27455 ft | 435 kts | 186° |
| 2026-05-06 23:42 | 52.69343 | 10.39755 | 27770 ft | 436 kts | 186° |
| 2026-05-06 23:42 | 52.66311 | 10.39349 | 28084 ft | 438 kts | 186° |
| 2026-05-06 23:43 | 52.63263 | 10.38938 | 28388 ft | 440 kts | 186° |
| 2026-05-06 23:43 | 52.60202 | 10.38520 | 28688 ft | 442 kts | 186° |
| 2026-05-06 23:43 | 52.57130 | 10.38102 | 28965 ft | 443 kts | 186° |
| 2026-05-06 23:43 | 52.54013 | 10.37680 | 29186 ft | 443 kts | 186° |
| 2026-05-06 23:44 | 52.50940 | 10.37272 | 29423 ft | 442 kts | 186° |
| 2026-05-06 23:44 | 52.47876 | 10.36865 | 29602 ft | 441 kts | 186° |
| 2026-05-06 23:44 | 52.44812 | 10.36455 | 29762 ft | 440 kts | 186° |
| 2026-05-06 23:44 | 52.41757 | 10.36045 | 29883 ft | 440 kts | 186° |
| 2026-05-06 23:45 | 52.38702 | 10.35640 | 29892 ft | 440 kts | 186° |
| 2026-05-06 23:45 | 52.32561 | 10.34828 | 29890 ft | 439 kts | 186° |
| 2026-05-06 23:46 | 52.26535 | 10.34033 | 29889 ft | 431 kts | 186° |
| 2026-05-06 23:46 | 52.20575 | 10.33232 | 29884 ft | 429 kts | 186° |
| 2026-05-06 23:47 | 52.14584 | 10.32448 | 29879 ft | 429 kts | 186° |
| 2026-05-06 23:47 | 52.08592 | 10.31668 | 29874 ft | 429 kts | 186° |
| 2026-05-06 23:48 | 52.02602 | 10.30896 | 29863 ft | 428 kts | 186° |
| 2026-05-06 23:48 | 51.96658 | 10.30118 | 29860 ft | 428 kts | 186° |
| 2026-05-06 23:49 | 51.90723 | 10.29333 | 29848 ft | 427 kts | 186° |
| 2026-05-06 23:49 | 51.84817 | 10.28562 | 29868 ft | 425 kts | 186° |
| 2026-05-06 23:50 | 51.78889 | 10.27798 | 29852 ft | 424 kts | 185° |
| 2026-05-06 23:50 | 51.70061 | 10.26642 | 29842 ft | 424 kts | 185° |
| 2026-05-06 23:51 | 51.64138 | 10.25881 | 29843 ft | 424 kts | 185° |
| 2026-05-06 23:51 | 51.58254 | 10.25122 | 29832 ft | 424 kts | 185° |
| 2026-05-06 23:52 | 51.52356 | 10.24363 | 29832 ft | 425 kts | 185° |
| 2026-05-06 23:52 | 51.46451 | 10.23618 | 29833 ft | 426 kts | 185° |
| 2026-05-06 23:53 | 51.40533 | 10.22865 | 29834 ft | 426 kts | 185° |
| 2026-05-06 23:53 | 51.34627 | 10.22102 | 29839 ft | 426 kts | 184° |
| 2026-05-06 23:54 | 51.28660 | 10.21624 | 29831 ft | 427 kts | 181° |
| 2026-05-06 23:54 | 51.22710 | 10.21593 | 29837 ft | 428 kts | 180° |
| 2026-05-06 23:55 | 51.16755 | 10.21609 | 29843 ft | 428 kts | 180° |
| 2026-05-06 23:55 | 51.10791 | 10.21525 | 29847 ft | 428 kts | 180° |
| 2026-05-06 23:56 | 51.04781 | 10.21400 | 29836 ft | 430 kts | 180° |
| 2026-05-06 23:56 | 51.01775 | 10.21340 | 29314 ft | 432 kts | 180° |
| 2026-05-06 23:56 | 50.98763 | 10.21279 | 28716 ft | 433 kts | 180° |
| 2026-05-06 23:57 | 50.95742 | 10.21220 | 28127 ft | 435 kts | 180° |
| 2026-05-06 23:57 | 50.92717 | 10.21166 | 27550 ft | 436 kts | 180° |
| 2026-05-06 23:57 | 50.90702 | 10.21132 | 27169 ft | 437 kts | 180° |
| 2026-05-06 23:57 | 50.87624 | 10.21073 | 26617 ft | 436 kts | 181° |
| 2026-05-06 23:58 | 50.83729 | 10.19821 | 25900 ft | 433 kts | 202° |
| 2026-05-06 23:58 | 50.81951 | 10.18413 | 25549 ft | 431 kts | 210° |
| 2026-05-06 23:58 | 50.79503 | 10.15583 | 25027 ft | 430 kts | 220° |
| 2026-05-06 23:58 | 50.77430 | 10.12204 | 24515 ft | 428 kts | 230° |
| 2026-05-06 23:59 | 50.75759 | 10.08334 | 24007 ft | 426 kts | 240° |
| 2026-05-06 23:59 | 50.74401 | 10.04192 | 23516 ft | 423 kts | 242° |
| 2026-05-06 23:59 | 50.73077 | 10.00083 | 22942 ft | 417 kts | 242° |
| 2026-05-06 23:59 | 50.71777 | 9.96032 | 22378 ft | 410 kts | 242° |
| 2026-05-07 00:00 | 50.70502 | 9.92046 | 21817 ft | 402 kts | 242° |
| 2026-05-07 00:00 | 50.69261 | 9.88163 | 21270 ft | 391 kts | 242° |
| 2026-05-07 00:00 | 50.68051 | 9.84389 | 20747 ft | 381 kts | 242° |
| 2026-05-07 00:00 | 50.66857 | 9.80678 | 20241 ft | 367 kts | 243° |
| 2026-05-07 00:01 | 50.65719 | 9.77157 | 19745 ft | 353 kts | 243° |
| 2026-05-07 00:01 | 50.64597 | 9.73793 | 19252 ft | 340 kts | 238° |
| 2026-05-07 00:01 | 50.63246 | 9.70812 | 18774 ft | 329 kts | 229° |
| 2026-05-07 00:01 | 50.61629 | 9.68250 | 18321 ft | 330 kts | 221° |
| 2026-05-07 00:02 | 50.59782 | 9.66117 | 17881 ft | 330 kts | 212° |
| 2026-05-07 00:02 | 50.57748 | 9.64456 | 17425 ft | 330 kts | 204° |
| 2026-05-07 00:02 | 50.55611 | 9.63142 | 16976 ft | 329 kts | 202° |
| 2026-05-07 00:02 | 50.53477 | 9.61844 | 16530 ft | 328 kts | 202° |
| 2026-05-07 00:03 | 50.51348 | 9.60549 | 16091 ft | 328 kts | 202° |
| 2026-05-07 00:03 | 50.49221 | 9.59256 | 15661 ft | 327 kts | 202° |
| 2026-05-07 00:03 | 50.47089 | 9.57891 | 15222 ft | 326 kts | 207° |
| 2026-05-07 00:03 | 50.45075 | 9.56316 | 14801 ft | 321 kts | 207° |
| 2026-05-07 00:04 | 50.43091 | 9.54769 | 14393 ft | 316 kts | 207° |
| 2026-05-07 00:04 | 50.41132 | 9.53248 | 14014 ft | 312 kts | 207° |
| 2026-05-07 00:04 | 50.39199 | 9.51754 | 13624 ft | 307 kts | 207° |
| 2026-05-07 00:04 | 50.37295 | 9.50281 | 13194 ft | 303 kts | 207° |
| 2026-05-07 00:05 | 50.35421 | 9.48831 | 12767 ft | 296 kts | 207° |
| 2026-05-07 00:05 | 50.33604 | 9.47427 | 12365 ft | 286 kts | 207° |
| 2026-05-07 00:05 | 50.31854 | 9.46076 | 11998 ft | 275 kts | 207° |
| 2026-05-07 00:05 | 50.30166 | 9.44773 | 11642 ft | 266 kts | 207° |
| 2026-05-07 00:06 | 50.28537 | 9.43512 | 11311 ft | 256 kts | 208° |
| 2026-05-07 00:06 | 50.27043 | 9.42058 | 10991 ft | 251 kts | 218° |
| 2026-05-07 00:06 | 50.25746 | 9.40207 | 10660 ft | 249 kts | 228° |
| 2026-05-07 00:06 | 50.24697 | 9.38062 | 10343 ft | 249 kts | 238° |
| 2026-05-07 00:07 | 50.23901 | 9.35659 | 10042 ft | 248 kts | 248° |
| 2026-05-07 00:07 | 50.23314 | 9.33127 | 9742 ft | 247 kts | 250° |
| 2026-05-07 00:07 | 50.22736 | 9.30603 | 9426 ft | 246 kts | 249° |
| 2026-05-07 00:07 | 50.22159 | 9.28104 | 9109 ft | 244 kts | 249° |
| 2026-05-07 00:08 | 50.21582 | 9.25620 | 8791 ft | 242 kts | 249° |
| 2026-05-07 00:08 | 50.21014 | 9.23169 | 8472 ft | 236 kts | 249° |
| 2026-05-07 00:08 | 50.20467 | 9.20816 | 8181 ft | 225 kts | 249° |
| 2026-05-07 00:08 | 50.19941 | 9.18550 | 7906 ft | 220 kts | 250° |
| 2026-05-07 00:09 | 50.19421 | 9.16310 | 7625 ft | 219 kts | 250° |
| 2026-05-07 00:09 | 50.18904 | 9.14083 | 7347 ft | 217 kts | 250° |
| 2026-05-07 00:09 | 50.18400 | 9.11920 | 7105 ft | 207 kts | 250° |
| 2026-05-07 00:09 | 50.17920 | 9.09855 | 6873 ft | 198 kts | 250° |
| 2026-05-07 00:10 | 50.17458 | 9.07874 | 6653 ft | 190 kts | 249° |
| 2026-05-07 00:10 | 50.17014 | 9.05977 | 6466 ft | 183 kts | 250° |
| 2026-05-07 00:10 | 50.16583 | 9.04140 | 6237 ft | 178 kts | 249° |
| 2026-05-07 00:10 | 50.16149 | 9.02303 | 5998 ft | 178 kts | 249° |
| 2026-05-07 00:11 | 50.15722 | 9.00515 | 5766 ft | 178 kts | 249° |
| 2026-05-07 00:11 | 50.15291 | 8.98690 | 5552 ft | 176 kts | 250° |
| 2026-05-07 00:11 | 50.14877 | 8.96925 | 5400 ft | 174 kts | 250° |
| 2026-05-07 00:11 | 50.14457 | 8.95132 | 5269 ft | 176 kts | 250° |
| 2026-05-07 00:12 | 50.14033 | 8.93324 | 5139 ft | 177 kts | 250° |
| 2026-05-07 00:12 | 50.13608 | 8.91509 | 5061 ft | 175 kts | 251° |
| 2026-05-07 00:12 | 50.13190 | 8.89732 | 5007 ft | 174 kts | 251° |
| 2026-05-07 00:12 | 50.12774 | 8.87958 | 5003 ft | 174 kts | 251° |
| 2026-05-07 00:13 | 50.12355 | 8.86177 | 4990 ft | 176 kts | 251° |
| 2026-05-07 00:13 | 50.11933 | 8.84381 | 4827 ft | 177 kts | 251° |
| 2026-05-07 00:13 | 50.11508 | 8.82579 | 4607 ft | 176 kts | 251° |
| 2026-05-07 00:13 | 50.11086 | 8.80786 | 4350 ft | 175 kts | 252° |
| 2026-05-07 00:14 | 50.10663 | 8.78995 | 4093 ft | 177 kts | 252° |
| 2026-05-07 00:14 | 50.10239 | 8.77199 | 3833 ft | 176 kts | 252° |
| 2026-05-07 00:14 | 50.09816 | 8.75409 | 3583 ft | 176 kts | 252° |
| 2026-05-07 00:14 | 50.09394 | 8.73625 | 3326 ft | 175 kts | 252° |
| 2026-05-07 00:15 | 50.08972 | 8.71842 | 3067 ft | 170 kts | 253° |
| 2026-05-07 00:15 | 50.08572 | 8.70157 | 2826 ft | 162 kts | 253° |
| 2026-05-07 00:15 | 50.08188 | 8.68537 | 2591 ft | 156 kts | 254° |
| 2026-05-07 00:15 | 50.07815 | 8.66965 | 2368 ft | 152 kts | 255° |
| 2026-05-07 00:16 | 50.07459 | 8.65466 | 2151 ft | 147 kts | 254° |
| 2026-05-07 00:16 | 50.07101 | 8.63958 | 1927 ft | 144 kts | 255° |
| 2026-05-07 00:16 | 50.06753 | 8.62493 | 1726 ft | 142 kts | 255° |
| 2026-05-07 00:16 | 50.06412 | 8.61058 | 1509 ft | 143 kts | 254° |
| 2026-05-07 00:17 | 50.06065 | 8.59611 | 1311 ft | 144 kts | 253° |
| 2026-05-07 00:17 | 50.05720 | 8.58163 | 1109 ft | 143 kts | 252° |
| 2026-05-07 00:17 | 50.05495 | 8.57194 | 965 ft | 142 kts | 251° |
| 2026-05-07 00:17 | 50.05151 | 8.55756 | 722 ft | 141 kts | 250° |
| 2026-05-07 00:18 | 50.04812 | 8.54317 | 531 ft | 139 kts | 250° |
| 2026-05-07 00:18 | 50.04475 | 8.52917 | 365 ft | 137 kts | 250° |
| 2026-05-07 00:18 | 50.04189 | 8.51730 | 334 ft | 85 kts | 250° |
| 2026-05-07 00:18 | 50.04082 | 8.51281 | 331 ft | 17 kts | 249° |
| 2026-05-07 00:19 | 50.04024 | 8.51103 | 326 ft | 20 kts | 234° |
| 2026-05-07 00:19 | 50.03944 | 8.50967 | 325 ft | 15 kts | 223° |
| 2026-05-07 00:19 | 50.03866 | 8.50863 | 325 ft | 10 kts | 220° |
| 2026-05-07 00:19 | 50.03816 | 8.50832 | 332 ft | 5 kts | 174° |
| 2026-05-07 00:20 | 50.03781 | 8.50891 | 330 ft | 11 kts | 102° |
| 2026-05-07 00:20 | 50.03799 | 8.50998 | 331 ft | 9 kts | 70° |
| 2026-05-07 00:20 | 50.03819 | 8.51085 | 334 ft | 9 kts | 70° |
| 2026-05-07 00:20 | 50.03849 | 8.51211 | 335 ft | 17 kts | 69° |
| 2026-05-07 00:21 | 50.03890 | 8.51379 | 332 ft | 16 kts | 70° |
| 2026-05-07 00:21 | 50.03926 | 8.51531 | 333 ft | 14 kts | 70° |
| 2026-05-07 00:21 | 50.03960 | 8.51674 | 334 ft | 16 kts | 69° |
| 2026-05-07 00:21 | 50.04002 | 8.51848 | 336 ft | 17 kts | 69° |
| 2026-05-07 00:22 | 50.04046 | 8.52032 | 338 ft | 20 kts | 70° |
| 2026-05-07 00:22 | 50.04093 | 8.52227 | 349 ft | 18 kts | 70° |
| 2026-05-07 00:22 | 50.04135 | 8.52402 | 350 ft | 18 kts | 70° |
| 2026-05-07 00:22 | 50.04182 | 8.52600 | 350 ft | 19 kts | 69° |
| 2026-05-07 00:23 | 50.04223 | 8.52770 | 353 ft | 15 kts | 69° |
| 2026-05-07 00:23 | 50.04257 | 8.52913 | 358 ft | 14 kts | 70° |
| 2026-05-07 00:23 | 50.04296 | 8.53077 | 358 ft | 19 kts | 70° |
| 2026-05-07 00:23 | 50.04346 | 8.53285 | 368 ft | 19 kts | 69° |
| 2026-05-07 00:24 | 50.04385 | 8.53445 | 373 ft | 12 kts | 70° |
| 2026-05-07 00:24 | 50.04400 | 8.53579 | 375 ft | 15 kts | 84° |
| 2026-05-07 00:24 | 50.04410 | 8.53734 | 375 ft | 14 kts | 84° |
| 2026-05-07 00:24 | 50.04419 | 8.53882 | 375 ft | 13 kts | 84° |
| 2026-05-07 00:25 | 50.04431 | 8.54067 | 375 ft | 21 kts | 84° |
| 2026-05-07 00:25 | 50.04446 | 8.54282 | 375 ft | 18 kts | 84° |
| 2026-05-07 00:25 | 50.04453 | 8.54442 | 370 ft | 13 kts | 92° |
| 2026-05-07 00:25 | 50.04431 | 8.54584 | 366 ft | 14 kts | 114° |
| 2026-05-07 00:26 | 50.04372 | 8.54710 | 361 ft | 15 kts | 137° |
| 2026-05-07 00:26 | 50.04283 | 8.54790 | 362 ft | 15 kts | 160° |
| 2026-05-07 00:26 | 50.04187 | 8.54842 | 357 ft | 15 kts | 160° |
| 2026-05-07 00:26 | 50.04091 | 8.54897 | 354 ft | 12 kts | 160° |
| 2026-05-07 00:27 | 50.04025 | 8.54936 | 355 ft | 8 kts | 158° |
| 2026-05-07 00:27 | 50.03978 | 8.54964 | 359 ft | 7 kts | 159° |
| 2026-05-07 00:27 | 50.03926 | 8.54994 | 359 ft | 10 kts | 159° |
| 2026-05-07 00:27 | 50.03871 | 8.55027 | 356 ft | 8 kts | 155° |
| 2026-05-07 00:28 | 50.03847 | 8.55097 | 352 ft | 7 kts | 87° |
| 2026-05-07 00:28 | 50.03862 | 8.55169 | 351 ft | 8 kts | 69° |
| 2026-05-07 00:28 | 50.03891 | 8.55292 | 354 ft | 16 kts | 70° |
| 2026-05-07 00:28 | 50.03934 | 8.55469 | 352 ft | 17 kts | 70° |
| 2026-05-07 00:29 | 50.03972 | 8.55632 | 355 ft | 15 kts | 70° |
| 2026-05-07 00:29 | 50.04007 | 8.55778 | 351 ft | 13 kts | 70° |
| 2026-05-07 00:30 | 50.04119 | 8.56244 | 357 ft | 16 kts | 70° |
| 2026-05-07 00:30 | 50.04156 | 8.56401 | 360 ft | 15 kts | 69° |
| 2026-05-07 00:30 | 50.04190 | 8.56544 | 359 ft | 13 kts | 69° |
| 2026-05-07 00:30 | 50.04221 | 8.56673 | 363 ft | 12 kts | 70° |
| 2026-05-07 00:31 | 50.04248 | 8.56774 | 366 ft | 8 kts | 57° |
| 2026-05-07 00:31 | 50.04287 | 8.56810 | 360 ft | 6 kts | 11° |
| 2026-05-07 00:31 | 50.04335 | 8.56824 | 360 ft | 9 kts | 12° |
| 2026-05-07 00:31 | 50.04409 | 8.56845 | 363 ft | 11 kts | 7° |
| 2026-05-07 00:32 | 50.04481 | 8.56864 | 359 ft | 10 kts | 13° |
| 2026-05-07 00:32 | 50.04546 | 8.56889 | 359 ft | 10 kts | 14° |
| 2026-05-07 00:32 | 50.04618 | 8.56916 | 356 ft | 11 kts | 13° |
| 2026-05-07 00:32 | 50.04686 | 8.56957 | 357 ft | 10 kts | 25° |
| 2026-05-07 00:33 | 50.04745 | 8.57000 | 364 ft | 9 kts | 25° |
| 2026-05-07 00:33 | 50.04796 | 8.57036 | 361 ft | 6 kts | 25° |
| 2026-05-07 00:33 | 50.04822 | 8.57041 | 359 ft | 3 kts | 339° |
| 2026-05-07 00:33 | 50.04831 | 8.57021 | 363 ft | 2 kts | 303° |
| 2026-05-07 00:34 | 50.04837 | 8.57003 | 358 ft | 3 kts | 296° |
| 2026-05-07 00:34 | 50.04846 | 8.56969 | 361 ft | 3 kts | 292° |
| 2026-05-07 00:34 | 50.04852 | 8.56948 | 357 ft | 1 kts | 294° |
| 2026-05-07 00:34 | 50.04852 | 8.56946 | 359 ft | 0 kts | 294° |